sensor_id;sensor_type;location;lat;lon;timestamp;pressure;altitude;pressure_sealevel;temperature;humidity
59417;BME280;45222;52.458;20.914;2023-02-20T00:02:44;100768.52;;;0.20;73.92
59417;BME280;45222;52.458;20.914;2023-02-20T00:06:31;100760.66;;;0.24;73.68
59417;BME280;45222;52.458;20.914;2023-02-20T00:10:20;100755.58;;;0.30;73.77
59417;BME280;45222;52.458;20.914;2023-02-20T00:14:09;100751.39;;;0.34;73.73
59417;BME280;45222;52.458;20.914;2023-02-20T00:17:57;100751.38;;;0.39;73.51
59417;BME280;45222;52.458;20.914;2023-02-20T00:21:49;100740.01;;;0.42;73.43
59417;BME280;45222;52.458;20.914;2023-02-20T00:25:37;100749.27;;;0.45;73.30
59417;BME280;45222;52.458;20.914;2023-02-20T00:29:25;100747.17;;;0.47;73.03
59417;BME280;45222;52.458;20.914;2023-02-20T00:33:13;100747.36;;;0.47;72.85
59417;BME280;45222;52.458;20.914;2023-02-20T00:37:01;100757.33;;;0.48;72.91
59417;BME280;45222;52.458;20.914;2023-02-20T00:40:48;100747.36;;;0.53;72.94
59417;BME280;45222;52.458;20.914;2023-02-20T00:44:36;100749.45;;;0.52;72.91
59417;BME280;45222;52.458;20.914;2023-02-20T00:48:24;100749.45;;;0.55;72.76
59417;BME280;45222;52.458;20.914;2023-02-20T00:52:11;100759.42;;;0.52;72.71
59417;BME280;45222;52.458;20.914;2023-02-20T00:55:59;100753.31;;;0.51;72.56
59417;BME280;45222;52.458;20.914;2023-02-20T00:59:47;100750.50;;;0.53;72.67
59417;BME280;45222;52.458;20.914;2023-02-20T01:03:35;100739.13;;;0.57;72.78
59417;BME280;45222;52.458;20.914;2023-02-20T01:07:23;100737.36;;;0.61;72.50
59417;BME280;45222;52.458;20.914;2023-02-20T01:11:11;100732.29;;;0.64;72.29
59417;BME280;45222;52.458;20.914;2023-02-20T01:14:59;100734.20;;;0.64;72.11
59417;BME280;45222;52.458;20.914;2023-02-20T01:18:49;100740.69;;;0.61;72.11
59417;BME280;45222;52.458;20.914;2023-02-20T01:22:37;100739.28;;;0.62;72.37
59417;BME280;45222;52.458;20.914;2023-02-20T01:26:27;100722.14;;;0.62;72.29
59417;BME280;45222;52.458;20.914;2023-02-20T01:30:15;100722.14;;;0.62;72.29
59417;BME280;45222;52.458;20.914;2023-02-20T01:34:04;100720.02;;;0.62;72.24
59417;BME280;45222;52.458;20.914;2023-02-20T01:37:52;100722.83;;;0.60;72.20
59417;BME280;45222;52.458;20.914;2023-02-20T01:41:40;100720.37;;;0.61;72.15
59417;BME280;45222;52.458;20.914;2023-02-20T01:45:33;100728.78;;;0.64;72.35
59417;BME280;45222;52.458;20.914;2023-02-20T01:49:25;100731.04;;;0.69;72.49
59417;BME280;45222;52.458;20.914;2023-02-20T01:53:17;100720.87;;;0.76;72.55
59417;BME280;45222;52.458;20.914;2023-02-20T01:57:11;100714.90;;;0.82;72.23
59417;BME280;45222;52.458;20.914;2023-02-20T02:01:01;100715.42;;;0.83;72.12
59417;BME280;45222;52.458;20.914;2023-02-20T02:04:50;100717.90;;;0.78;72.21
59417;BME280;45222;52.458;20.914;2023-02-20T02:08:39;100721.92;;;0.77;72.23
59417;BME280;45222;52.458;20.914;2023-02-20T02:12:29;100713.34;;;0.78;72.57
59417;BME280;45222;52.458;20.914;2023-02-20T02:16:24;100703.17;;;0.78;72.70
59417;BME280;45222;52.458;20.914;2023-02-20T02:24:57;100700.73;;;0.78;72.81
59417;BME280;45222;52.458;20.914;2023-02-20T02:29:07;100706.86;;;0.79;72.67
59417;BME280;45222;52.458;20.914;2023-02-20T02:33:09;100713.85;;;0.81;72.87
59417;BME280;45222;52.458;20.914;2023-02-20T02:37:17;100716.83;;;0.82;72.96
59417;BME280;45222;52.458;20.914;2023-02-20T02:41:14;100707.19;;;0.86;72.75
59417;BME280;45222;52.458;20.914;2023-02-20T02:45:11;100704.05;;;0.83;72.83
59417;BME280;45222;52.458;20.914;2023-02-20T02:49:06;100704.23;;;0.80;72.74
59417;BME280;45222;52.458;20.914;2023-02-20T02:52:59;100704.59;;;0.76;72.90
59417;BME280;45222;52.458;20.914;2023-02-20T02:56:47;100706.52;;;0.77;72.95
59417;BME280;45222;52.458;20.914;2023-02-20T03:00:39;100701.09;;;0.77;72.97
59417;BME280;45222;52.458;20.914;2023-02-20T03:04:28;100698.64;;;0.78;73.01
59417;BME280;45222;52.458;20.914;2023-02-20T03:08:25;100703.54;;;0.78;72.68
59417;BME280;45222;52.458;20.914;2023-02-20T03:12:18;100702.50;;;0.75;72.72
59417;BME280;45222;52.458;20.914;2023-02-20T03:16:07;100700.59;;;0.69;72.74
59417;BME280;45222;52.458;20.914;2023-02-20T03:19:58;100704.42;;;0.71;73.08
59417;BME280;45222;52.458;20.914;2023-02-20T03:23:53;100694.29;;;0.70;73.37
59417;BME280;45222;52.458;20.914;2023-02-20T03:27:48;100694.11;;;0.70;73.21
59417;BME280;45222;52.458;20.914;2023-02-20T03:31:42;100687.11;;;0.67;73.01
59417;BME280;45222;52.458;20.914;2023-02-20T03:35:33;100688.36;;;0.63;73.11
59417;BME280;45222;52.458;20.914;2023-02-20T03:39:43;100693.95;;;0.59;73.23
59417;BME280;45222;52.458;20.914;2023-02-20T03:43:51;100693.60;;;0.60;73.57
59417;BME280;45222;52.458;20.914;2023-02-20T03:47:44;100689.75;;;0.60;73.70
59417;BME280;45222;52.458;20.914;2023-02-20T03:51:36;100689.58;;;0.59;73.82
59417;BME280;45222;52.458;20.914;2023-02-20T03:55:24;100687.14;;;0.59;73.85
59417;BME280;45222;52.458;20.914;2023-02-20T03:59:16;100686.95;;;0.61;73.56
59417;BME280;45222;52.458;20.914;2023-02-20T04:03:09;100693.61;;;0.57;73.63
59417;BME280;45222;52.458;20.914;2023-02-20T04:07:00;100691.70;;;0.53;73.72
59417;BME280;45222;52.458;20.914;2023-02-20T04:10:54;100684.35;;;0.53;73.72
59417;BME280;45222;52.458;20.914;2023-02-20T04:14:45;100682.44;;;0.51;74.04
59417;BME280;45222;52.458;20.914;2023-02-20T04:18:34;100672.80;;;0.56;74.17
59417;BME280;45222;52.458;20.914;2023-02-20T04:22:26;100674.20;;;0.56;74.07
59417;BME280;45222;52.458;20.914;2023-02-20T04:26:18;100672.27;;;0.56;73.97
59417;BME280;45222;52.458;20.914;2023-02-20T04:30:08;100674.02;;;0.55;73.89
59417;BME280;45222;52.458;20.914;2023-02-20T04:33:56;100669.65;;;0.50;74.11
59417;BME280;45222;52.458;20.914;2023-02-20T04:37:45;100669.48;;;0.53;74.39
59417;BME280;45222;52.458;20.914;2023-02-20T04:41:32;100663.52;;;0.52;74.59
59417;BME280;45222;52.458;20.914;2023-02-20T04:45:20;100657.22;;;0.53;74.48
59417;BME280;45222;52.458;20.914;2023-02-20T04:49:08;100653.55;;;0.48;74.67
59417;BME280;45222;52.458;20.914;2023-02-20T04:52:57;100655.67;;;0.45;74.40
59417;BME280;45222;52.458;20.914;2023-02-20T04:56:45;100650.77;;;0.39;74.61
59417;BME280;45222;52.458;20.914;2023-02-20T05:00:33;100647.63;;;0.37;74.85
59417;BME280;45222;52.458;20.914;2023-02-20T05:04:21;100643.44;;;0.40;75.05
59417;BME280;45222;52.458;20.914;2023-02-20T05:08:09;100639.23;;;0.44;75.15
59417;BME280;45222;52.458;20.914;2023-02-20T05:11:58;100627.33;;;0.44;75.11
59417;BME280;45222;52.458;20.914;2023-02-20T05:15:46;100624.70;;;0.41;74.97
59417;BME280;45222;52.458;20.914;2023-02-20T05:19:34;100619.65;;;0.35;75.19
59417;BME280;45222;52.458;20.914;2023-02-20T05:23:22;100616.16;;;0.30;75.19
59417;BME280;45222;52.458;20.914;2023-02-20T05:27:09;100610.06;;;0.27;75.40
59417;BME280;45222;52.458;20.914;2023-02-20T05:31:00;100616.33;;;0.32;75.79
59417;BME280;45222;52.458;20.914;2023-02-20T05:34:48;100619.81;;;0.38;76.06
59417;BME280;45222;52.458;20.914;2023-02-20T05:38:36;100622.61;;;0.39;76.11
59417;BME280;45222;52.458;20.914;2023-02-20T05:42:24;100613.52;;;0.39;75.76
59417;BME280;45222;52.458;20.914;2023-02-20T05:46:12;100599.35;;;0.37;75.80
59417;BME280;45222;52.458;20.914;2023-02-20T05:50:00;100592.00;;;0.36;75.90
59417;BME280;45222;52.458;20.914;2023-02-20T05:53:49;100594.45;;;0.36;75.88
59417;BME280;45222;52.458;20.914;2023-02-20T05:57:36;100588.67;;;0.38;76.28
59417;BME280;45222;52.458;20.914;2023-02-20T06:01:28;100588.31;;;0.43;76.44
59417;BME280;45222;52.458;20.914;2023-02-20T06:05:17;100587.41;;;0.49;76.64
59417;BME280;45222;52.458;20.914;2023-02-20T06:09:06;100589.14;;;0.54;76.57
59417;BME280;45222;52.458;20.914;2023-02-20T06:12:56;100584.21;;;0.60;76.37
59417;BME280;45222;52.458;20.914;2023-02-20T06:16:44;100571.60;;;0.61;76.27
59417;BME280;45222;52.458;20.914;2023-02-20T06:20:32;100562.67;;;0.62;76.15
59417;BME280;45222;52.458;20.914;2023-02-20T06:24:20;100563.73;;;0.61;76.26
59417;BME280;45222;52.458;20.914;2023-02-20T06:28:09;100562.16;;;0.62;76.49
59417;BME280;45222;52.458;20.914;2023-02-20T06:31:59;100559.52;;;0.66;76.62
59417;BME280;45222;52.458;20.914;2023-02-20T06:35:47;100552.30;;;0.75;76.97
59417;BME280;45222;52.458;20.914;2023-02-20T06:39:35;100546.66;;;0.80;76.83
59417;BME280;45222;52.458;20.914;2023-02-20T06:43:23;100547.33;;;0.85;76.81
59417;BME280;45222;52.458;20.914;2023-02-20T06:47:11;100545.36;;;0.92;76.68
59417;BME280;45222;52.458;20.914;2023-02-20T06:50:59;100534.65;;;0.99;76.68
59417;BME280;45222;52.458;20.914;2023-02-20T06:54:47;100530.21;;;1.06;76.81
59417;BME280;45222;52.458;20.914;2023-02-20T06:58:38;100531.92;;;1.13;76.70
59417;BME280;45222;52.458;20.914;2023-02-20T07:02:26;100529.23;;;1.22;76.37
59417;BME280;45222;52.458;20.914;2023-02-20T07:06:13;100532.51;;;1.29;76.09
59417;BME280;45222;52.458;20.914;2023-02-20T07:10:02;100524.02;;;1.37;76.18
59417;BME280;45222;52.458;20.914;2023-02-20T07:13:51;100514.84;;;1.47;76.26
59417;BME280;45222;52.458;20.914;2023-02-20T07:17:39;100514.41;;;1.56;75.99
59417;BME280;45222;52.458;20.914;2023-02-20T07:21:27;100512.96;;;1.60;75.67
59417;BME280;45222;52.458;20.914;2023-02-20T07:25:15;100518.02;;;1.64;75.67
59417;BME280;45222;52.458;20.914;2023-02-20T07:29:04;100515.14;;;1.71;75.57
59417;BME280;45222;52.458;20.914;2023-02-20T07:32:52;100514.91;;;1.77;75.81
59417;BME280;45222;52.458;20.914;2023-02-20T07:36:41;100518.34;;;1.84;75.64
59417;BME280;45222;52.458;20.914;2023-02-20T07:40:29;100514.61;;;1.89;75.46
59417;BME280;45222;52.458;20.914;2023-02-20T07:44:17;100511.27;;;1.90;75.38
59417;BME280;45222;52.458;20.914;2023-02-20T07:48:05;100494.41;;;1.92;75.63
59417;BME280;45222;52.458;20.914;2023-02-20T07:51:53;100480.08;;;2.03;75.65
59417;BME280;45222;52.458;20.914;2023-02-20T07:55:41;100468.81;;;2.07;75.55
59417;BME280;45222;52.458;20.914;2023-02-20T07:59:29;100456.63;;;2.12;75.26
59417;BME280;45222;52.458;20.914;2023-02-20T08:03:17;100447.13;;;2.15;75.32
59417;BME280;45222;52.458;20.914;2023-02-20T08:07:05;100433.41;;;2.18;75.52
59417;BME280;45222;52.458;20.914;2023-02-20T08:10:53;100437.21;;;2.23;75.32
59417;BME280;45222;52.458;20.914;2023-02-20T08:14:41;100432.59;;;2.27;75.36
59417;BME280;45222;52.458;20.914;2023-02-20T08:18:30;100423.25;;;2.31;75.17
59417;BME280;45222;52.458;20.914;2023-02-20T08:22:17;100417.42;;;2.33;75.43
59417;BME280;45222;52.458;20.914;2023-02-20T08:26:05;100405.04;;;2.39;75.57
59417;BME280;45222;52.458;20.914;2023-02-20T08:29:53;100395.35;;;2.44;75.58
59417;BME280;45222;52.458;20.914;2023-02-20T08:33:41;100391.13;;;2.43;75.93
59417;BME280;45222;52.458;20.914;2023-02-20T08:37:29;100386.41;;;2.41;76.30
59417;BME280;45222;52.458;20.914;2023-02-20T08:41:17;100379.74;;;2.42;76.71
59417;BME280;45222;52.458;20.914;2023-02-20T08:45:07;100370.27;;;2.40;77.11
59417;BME280;45222;52.458;20.914;2023-02-20T08:48:55;100364.00;;;2.37;77.25
59417;BME280;45222;52.458;20.914;2023-02-20T08:52:44;100354.96;;;2.31;78.01
59417;BME280;45222;52.458;20.914;2023-02-20T08:56:31;100345.34;;;2.30;78.49
59417;BME280;45222;52.458;20.914;2023-02-20T09:00:20;100331.90;;;2.24;78.78
59417;BME280;45222;52.458;20.914;2023-02-20T09:04:08;100316.78;;;2.14;79.44
59417;BME280;45222;52.458;20.914;2023-02-20T09:07:56;100302.69;;;2.07;80.06
59417;BME280;45222;52.458;20.914;2023-02-20T09:11:44;100287.02;;;1.99;80.78
59417;BME280;45222;52.458;20.914;2023-02-20T09:15:31;100271.95;;;1.85;81.29
59417;BME280;45222;52.458;20.914;2023-02-20T09:19:24;100263.39;;;1.71;82.01
59417;BME280;45222;52.458;20.914;2023-02-20T09:23:12;100249.99;;;1.63;82.89
59417;BME280;45222;52.458;20.914;2023-02-20T09:27:00;100236.73;;;1.58;83.22
59417;BME280;45222;52.458;20.914;2023-02-20T09:30:48;100221.95;;;1.50;83.73
59417;BME280;45222;52.458;20.914;2023-02-20T09:34:40;100200.48;;;1.43;84.27
59417;BME280;45222;52.458;20.914;2023-02-20T09:38:29;100184.84;;;1.35;84.66
59417;BME280;45222;52.458;20.914;2023-02-20T09:42:25;100180.51;;;1.31;85.34
59417;BME280;45222;52.458;20.914;2023-02-20T09:46:18;100170.05;;;1.27;85.80
59417;BME280;45222;52.458;20.914;2023-02-20T09:50:12;100156.04;;;1.27;86.15
59417;BME280;45222;52.458;20.914;2023-02-20T09:54:05;100146.76;;;1.25;86.19
59417;BME280;45222;52.458;20.914;2023-02-20T09:57:55;100147.48;;;1.25;86.95
59417;BME280;45222;52.458;20.914;2023-02-20T10:01:53;100128.89;;;1.26;87.22
59417;BME280;45222;52.458;20.914;2023-02-20T10:05:43;100117.64;;;1.29;87.28
59417;BME280;45222;52.458;20.914;2023-02-20T10:09:34;100107.70;;;1.38;87.71
59417;BME280;45222;52.458;20.914;2023-02-20T10:13:32;100100.08;;;1.43;87.44
59417;BME280;45222;52.458;20.914;2023-02-20T10:17:30;100088.52;;;1.43;87.84
59417;BME280;45222;52.458;20.914;2023-02-20T10:21:32;100075.51;;;1.45;88.40
59417;BME280;45222;52.458;20.914;2023-02-20T10:25:27;100063.66;;;1.53;88.49
59417;BME280;45222;52.458;20.914;2023-02-20T10:29:19;100053.64;;;1.55;88.37
59417;BME280;45222;52.458;20.914;2023-02-20T10:33:19;100045.68;;;1.58;88.48
59417;BME280;45222;52.458;20.914;2023-02-20T10:37:13;100039.92;;;1.57;88.44
59417;BME280;45222;52.458;20.914;2023-02-20T10:41:07;100027.80;;;1.59;88.65
59417;BME280;45222;52.458;20.914;2023-02-20T10:45:02;100025.02;;;1.58;88.82
59417;BME280;45222;52.458;20.914;2023-02-20T10:48:58;100019.38;;;1.59;88.92
59417;BME280;45222;52.458;20.914;2023-02-20T10:52:53;100003.61;;;1.59;88.78
59417;BME280;45222;52.458;20.914;2023-02-20T10:56:46;99989.20;;;1.60;88.86
59417;BME280;45222;52.458;20.914;2023-02-20T11:00:40;99984.39;;;1.56;89.10
59417;BME280;45222;52.458;20.914;2023-02-20T11:04:31;99980.13;;;1.59;89.14
59417;BME280;45222;52.458;20.914;2023-02-20T11:08:21;99961.41;;;1.57;89.17
59417;BME280;45222;52.458;20.914;2023-02-20T11:12:21;99920.98;;;1.54;89.26
59417;BME280;45222;52.458;20.914;2023-02-20T11:16:20;99846.13;;;1.55;89.27
59417;BME280;45222;52.458;20.914;2023-02-20T11:20:41;99833.69;;;1.55;89.61
59417;BME280;45222;52.458;20.914;2023-02-20T11:24:33;99838.39;;;1.56;89.85
59417;BME280;45222;52.458;20.914;2023-02-20T11:28:22;99813.96;;;1.59;90.02
59417;BME280;45222;52.458;20.914;2023-02-20T11:32:30;99814.21;;;1.65;90.61
59417;BME280;45222;52.458;20.914;2023-02-20T11:36:23;99788.88;;;1.69;90.40
59417;BME280;45222;52.458;20.914;2023-02-20T11:40:19;99767.33;;;1.77;90.78
59417;BME280;45222;52.458;20.914;2023-02-20T11:44:21;99739.69;;;1.82;90.88
59417;BME280;45222;52.458;20.914;2023-02-20T11:48:12;99719.63;;;1.93;91.29
59417;BME280;45222;52.458;20.914;2023-02-20T11:52:12;99697.41;;;2.05;91.16
59417;BME280;45222;52.458;20.914;2023-02-20T11:56:10;99687.30;;;2.17;91.34
59417;BME280;45222;52.458;20.914;2023-02-20T12:00:14;99655.09;;;2.28;91.41
59417;BME280;45222;52.458;20.914;2023-02-20T12:04:18;99639.16;;;2.40;91.64
59417;BME280;45222;52.458;20.914;2023-02-20T12:08:26;99634.04;;;2.54;91.60
59417;BME280;45222;52.458;20.914;2023-02-20T12:12:15;99640.78;;;2.65;91.28
59417;BME280;45222;52.458;20.914;2023-02-20T12:16:20;99636.80;;;2.75;91.23
59417;BME280;45222;52.458;20.914;2023-02-20T12:20:12;99636.89;;;2.84;91.25
59417;BME280;45222;52.458;20.914;2023-02-20T12:24:11;99637.90;;;2.98;91.24
59417;BME280;45222;52.458;20.914;2023-02-20T12:28:07;99646.66;;;3.11;91.25
59417;BME280;45222;52.458;20.914;2023-02-20T12:32:10;99642.13;;;3.28;91.02
59417;BME280;45222;52.458;20.914;2023-02-20T12:36:14;99633.34;;;3.45;90.82
59417;BME280;45222;52.458;20.914;2023-02-20T12:40:19;99632.04;;;3.59;90.48
59417;BME280;45222;52.458;20.914;2023-02-20T12:44:26;99629.61;;;3.69;90.11
59417;BME280;45222;52.458;20.914;2023-02-20T12:48:26;99622.92;;;3.80;89.91
59417;BME280;45222;52.458;20.914;2023-02-20T12:52:29;99608.20;;;3.89;89.66
59417;BME280;45222;52.458;20.914;2023-02-20T12:56:31;99599.10;;;3.98;89.46
59417;BME280;45222;52.458;20.914;2023-02-20T13:00:29;99597.52;;;4.09;88.86
59417;BME280;45222;52.458;20.914;2023-02-20T13:04:24;99603.42;;;4.16;88.61
59417;BME280;45222;52.458;20.914;2023-02-20T13:08:16;99597.37;;;4.23;88.41
59417;BME280;45222;52.458;20.914;2023-02-20T13:12:08;99593.38;;;4.31;88.19
59417;BME280;45222;52.458;20.914;2023-02-20T13:16:02;99582.67;;;4.40;87.94
59417;BME280;45222;52.458;20.914;2023-02-20T13:19:56;99570.56;;;4.44;87.51
59417;BME280;45222;52.458;20.914;2023-02-20T13:23:47;99565.86;;;4.53;87.37
59417;BME280;45222;52.458;20.914;2023-02-20T13:27:38;99554.91;;;4.59;87.05
59417;BME280;45222;52.458;20.914;2023-02-20T13:31:42;99552.34;;;4.66;86.71
59417;BME280;45222;52.458;20.914;2023-02-20T13:35:48;99532.83;;;4.69;86.44
59417;BME280;45222;52.458;20.914;2023-02-20T13:39:43;99531.26;;;4.74;86.39
59417;BME280;45222;52.458;20.914;2023-02-20T13:43:32;99517.88;;;4.79;86.31
59417;BME280;45222;52.458;20.914;2023-02-20T13:47:35;99503.24;;;4.84;86.07
59417;BME280;45222;52.458;20.914;2023-02-20T13:51:46;99507.02;;;4.86;85.89
59417;BME280;45222;52.458;20.914;2023-02-20T13:55:35;99510.64;;;4.88;85.93
59417;BME280;45222;52.458;20.914;2023-02-20T13:59:24;99503.89;;;4.94;86.00
59417;BME280;45222;52.458;20.914;2023-02-20T14:03:17;99498.45;;;4.98;86.10
59417;BME280;45222;52.458;20.914;2023-02-20T14:07:06;99497.13;;;5.01;85.87
59417;BME280;45222;52.458;20.914;2023-02-20T14:10:54;99495.92;;;5.04;85.82
59417;BME280;45222;52.458;20.914;2023-02-20T14:14:44;99489.41;;;5.08;85.96
59417;BME280;45222;52.458;20.914;2023-02-20T14:18:34;99487.59;;;5.14;85.80
59417;BME280;45222;52.458;20.914;2023-02-20T14:22:29;99484.30;;;5.17;85.79
59417;BME280;45222;52.458;20.914;2023-02-20T14:26:22;99469.21;;;5.20;85.95
59417;BME280;45222;52.458;20.914;2023-02-20T14:30:15;99459.15;;;5.25;85.60
59417;BME280;45222;52.458;20.914;2023-02-20T14:34:13;99441.42;;;5.31;85.40
59417;BME280;45222;52.458;20.914;2023-02-20T14:38:18;99431.05;;;5.35;85.10
59417;BME280;45222;52.458;20.914;2023-02-20T14:42:15;99417.04;;;5.41;85.10
59417;BME280;45222;52.458;20.914;2023-02-20T14:46:05;99427.63;;;5.49;85.15
59417;BME280;45222;52.458;20.914;2023-02-20T14:49:58;99420.89;;;5.54;84.64
59417;BME280;45222;52.458;20.914;2023-02-20T14:53:59;99409.13;;;5.57;84.64
59417;BME280;45222;52.458;20.914;2023-02-20T14:57:48;99400.77;;;5.62;84.59
59417;BME280;45222;52.458;20.914;2023-02-20T15:01:39;99382.98;;;5.70;84.39
59417;BME280;45222;52.458;20.914;2023-02-20T15:05:30;99378.27;;;5.77;83.67
59417;BME280;45222;52.458;20.914;2023-02-20T15:09:20;99365.08;;;5.84;83.55
59417;BME280;45222;52.458;20.914;2023-02-20T15:13:10;99374.02;;;5.89;83.47
59417;BME280;45222;52.458;20.914;2023-02-20T15:17:19;99371.42;;;5.92;82.99
59417;BME280;45222;52.458;20.914;2023-02-20T15:21:08;99358.22;;;5.95;82.84
59417;BME280;45222;52.458;20.914;2023-02-20T15:24:55;99351.97;;;6.01;82.71
59417;BME280;45222;52.458;20.914;2023-02-20T15:29:20;99355.91;;;6.04;82.45
59417;BME280;45222;52.458;20.914;2023-02-20T15:33:09;99365.02;;;6.09;82.26
59417;BME280;45222;52.458;20.914;2023-02-20T15:36:57;99375.84;;;6.12;82.37
59417;BME280;45222;52.458;20.914;2023-02-20T15:40:45;99378.89;;;6.18;82.39
59417;BME280;45222;52.458;20.914;2023-02-20T15:44:38;99372.80;;;6.25;82.08
59417;BME280;45222;52.458;20.914;2023-02-20T15:48:31;99364.59;;;6.30;81.50
59417;BME280;45222;52.458;20.914;2023-02-20T15:52:26;99348.83;;;6.35;81.42
59417;BME280;45222;52.458;20.914;2023-02-20T15:56:15;99342.84;;;6.38;81.27
59417;BME280;45222;52.458;20.914;2023-02-20T16:00:05;99337.48;;;6.40;80.95
59417;BME280;45222;52.458;20.914;2023-02-20T16:03:51;99330.19;;;6.41;80.92
59417;BME280;45222;52.458;20.914;2023-02-20T16:07:39;99329.33;;;6.40;80.83
59417;BME280;45222;52.458;20.914;2023-02-20T16:11:34;99332.36;;;6.43;80.75
59417;BME280;45222;52.458;20.914;2023-02-20T16:15:23;99327.15;;;6.45;80.53
59417;BME280;45222;52.458;20.914;2023-02-20T16:19:14;99327.13;;;6.49;80.28
59417;BME280;45222;52.458;20.914;2023-02-20T16:23:03;99325.71;;;6.53;79.92
59417;BME280;45222;52.458;20.914;2023-02-20T16:26:54;99310.72;;;6.56;79.86
59417;BME280;45222;52.458;20.914;2023-02-20T16:30:42;99302.70;;;6.57;79.79
59417;BME280;45222;52.458;20.914;2023-02-20T16:34:32;99308.31;;;6.58;80.06
59417;BME280;45222;52.458;20.914;2023-02-20T16:38:20;99311.04;;;6.57;80.45
59417;BME280;45222;52.458;20.914;2023-02-20T16:42:22;99308.79;;;6.56;80.54
59417;BME280;45222;52.458;20.914;2023-02-20T16:46:11;99303.15;;;6.56;81.03
59417;BME280;45222;52.458;20.914;2023-02-20T16:49:59;99305.40;;;6.56;81.03
59417;BME280;45222;52.458;20.914;2023-02-20T16:53:52;99298.76;;;6.55;81.14
59417;BME280;45222;52.458;20.914;2023-02-20T16:57:40;99301.88;;;6.53;81.44
59417;BME280;45222;52.458;20.914;2023-02-20T17:01:28;99294.08;;;6.53;81.90
59417;BME280;45222;52.458;20.914;2023-02-20T17:05:17;99299.48;;;6.55;81.99
59417;BME280;45222;52.458;20.914;2023-02-20T17:09:05;99305.39;;;6.53;82.17
59417;BME280;45222;52.458;20.914;2023-02-20T17:12:54;99293.73;;;6.53;82.66
59417;BME280;45222;52.458;20.914;2023-02-20T17:16:42;99284.26;;;6.55;82.83
59417;BME280;45222;52.458;20.914;2023-02-20T17:20:34;99283.97;;;6.54;83.04
59417;BME280;45222;52.458;20.914;2023-02-20T17:24:21;99277.63;;;6.54;83.35
59417;BME280;45222;52.458;20.914;2023-02-20T17:28:09;99269.15;;;6.50;83.80
59417;BME280;45222;52.458;20.914;2023-02-20T17:31:56;99278.70;;;6.50;84.12
59417;BME280;45222;52.458;20.914;2023-02-20T17:35:44;99275.24;;;6.45;84.34
59417;BME280;45222;52.458;20.914;2023-02-20T17:39:32;99270.52;;;6.44;84.71
59417;BME280;45222;52.458;20.914;2023-02-20T17:43:20;99266.92;;;6.45;85.05
59417;BME280;45222;52.458;20.914;2023-02-20T17:47:08;99261.58;;;6.46;85.59
59417;BME280;45222;52.458;20.914;2023-02-20T17:50:56;99262.60;;;6.47;85.54
59417;BME280;45222;52.458;20.914;2023-02-20T17:54:47;99265.47;;;6.46;85.94
59417;BME280;45222;52.458;20.914;2023-02-20T17:58:35;99259.63;;;6.47;86.18
59417;BME280;45222;52.458;20.914;2023-02-20T18:02:23;99263.91;;;6.45;86.36
59417;BME280;45222;52.458;20.914;2023-02-20T18:06:10;99264.30;;;6.45;86.59
59417;BME280;45222;52.458;20.914;2023-02-20T18:09:59;99271.89;;;6.45;86.86
59417;BME280;45222;52.458;20.914;2023-02-20T18:13:48;99267.44;;;6.46;87.09
59417;BME280;45222;52.458;20.914;2023-02-20T18:17:37;99263.77;;;6.45;87.57
59417;BME280;45222;52.458;20.914;2023-02-20T18:21:26;99265.92;;;6.44;87.66
59417;BME280;45222;52.458;20.914;2023-02-20T18:25:14;99266.54;;;6.42;87.99
59417;BME280;45222;52.458;20.914;2023-02-20T18:29:02;99261.23;;;6.39;88.47
59417;BME280;45222;52.458;20.914;2023-02-20T18:32:51;99262.27;;;6.36;88.84
59417;BME280;45222;52.458;20.914;2023-02-20T18:36:39;99259.41;;;6.32;89.12
59417;BME280;45222;52.458;20.914;2023-02-20T18:40:26;99264.65;;;6.30;89.64
59417;BME280;45222;52.458;20.914;2023-02-20T18:44:16;99261.30;;;6.27;89.75
59417;BME280;45222;52.458;20.914;2023-02-20T18:48:05;99254.20;;;6.27;89.80
59417;BME280;45222;52.458;20.914;2023-02-20T18:51:53;99262.70;;;6.30;90.24
59417;BME280;45222;52.458;20.914;2023-02-20T18:55:41;99258.67;;;6.33;90.37
59417;BME280;45222;52.458;20.914;2023-02-20T18:59:29;99247.43;;;6.36;90.12
59417;BME280;45222;52.458;20.914;2023-02-20T19:03:17;99253.11;;;6.39;90.01
59417;BME280;45222;52.458;20.914;2023-02-20T19:07:06;99246.13;;;6.44;89.97
59417;BME280;45222;52.458;20.914;2023-02-20T19:10:54;99247.41;;;6.51;89.85
59417;BME280;45222;52.458;20.914;2023-02-20T19:14:42;99246.39;;;6.57;89.54
59417;BME280;45222;52.458;20.914;2023-02-20T19:18:30;99245.20;;;6.63;89.64
59417;BME280;45222;52.458;20.914;2023-02-20T19:22:18;99249.27;;;6.66;89.78
59417;BME280;45222;52.458;20.914;2023-02-20T19:26:08;99248.22;;;6.70;89.75
59417;BME280;45222;52.458;20.914;2023-02-20T19:29:58;99250.69;;;6.74;89.73
59417;BME280;45222;52.458;20.914;2023-02-20T19:33:48;99247.11;;;6.78;89.40
59417;BME280;45222;52.458;20.914;2023-02-20T19:37:36;99242.40;;;6.83;89.10
59417;BME280;45222;52.458;20.914;2023-02-20T19:41:23;99234.16;;;6.89;88.72
59417;BME280;45222;52.458;20.914;2023-02-20T19:45:12;99227.70;;;6.91;88.32
59417;BME280;45222;52.458;20.914;2023-02-20T19:49:00;99214.67;;;6.97;88.01
59417;BME280;45222;52.458;20.914;2023-02-20T19:52:55;99197.20;;;7.00;87.73
59417;BME280;45222;52.458;20.914;2023-02-20T19:56:47;99214.80;;;7.05;87.50
59417;BME280;45222;52.458;20.914;2023-02-20T20:00:37;99196.63;;;7.10;87.16
59417;BME280;45222;52.458;20.914;2023-02-20T20:04:27;99203.84;;;7.15;86.93
59417;BME280;45222;52.458;20.914;2023-02-20T20:08:16;99202.66;;;7.17;86.88
59417;BME280;45222;52.458;20.914;2023-02-20T20:12:05;99229.70;;;7.24;86.35
59417;BME280;45222;52.458;20.914;2023-02-20T20:16:14;99231.64;;;7.28;86.11
59417;BME280;45222;52.458;20.914;2023-02-20T20:20:02;99220.58;;;7.29;85.82
59417;BME280;45222;52.458;20.914;2023-02-20T20:23:52;99238.79;;;7.30;85.75